sensor_id;sensor_type;location;lat;lon;timestamp;pressure;altitude;pressure_sealevel;temperature;humidity
22930;BME280;11630;42.660;23.292;2023-11-18T00:02:15;68276.95;;;6.71;100.00
22930;BME280;11630;42.660;23.292;2023-11-18T00:04:46;68271.28;;;6.67;100.00
22930;BME280;11630;42.660;23.292;2023-11-18T00:07:17;68282.09;;;6.72;100.00
22930;BME280;11630;42.660;23.292;2023-11-18T00:09:47;68271.25;;;6.65;100.00
22930;BME280;11630;42.660;23.292;2023-11-18T00:12:18;68278.05;;;6.72;100.00
22930;BME280;11630;42.660;23.292;2023-11-18T00:14:49;68271.23;;;6.60;100.00
22930;BME280;11630;42.660;23.292;2023-11-18T00:17:20;68260.95;;;6.55;100.00
22930;BME280;11630;42.660;23.292;2023-11-18T00:19:51;68262.86;;;6.56;100.00
22930;BME280;11630;42.660;23.292;2023-11-18T00:22:24;68259.59;;;6.50;100.00
22930;BME280;11630;42.660;23.292;2023-11-18T00:24:55;68254.47;;;6.52;100.00
22930;BME280;11630;42.660;23.292;2023-11-18T00:27:26;68261.48;;;6.53;100.00
22930;BME280;11630;42.660;23.292;2023-11-18T00:29:57;68260.38;;;6.47;100.00
22930;BME280;11630;42.660;23.292;2023-11-18T00:32:28;68256.38;;;6.52;100.00
22930;BME280;11630;42.660;23.292;2023-11-18T00:34:59;68266.10;;;6.59;100.00
22930;BME280;11630;42.660;23.292;2023-11-18T00:37:30;68254.45;;;6.47;100.00
22930;BME280;11630;42.660;23.292;2023-11-18T00:40:01;68247.16;;;6.46;100.00
22930;BME280;11630;42.660;23.292;2023-11-18T00:42:31;68245.20;;;6.33;100.00
22930;BME280;11630;42.660;23.292;2023-11-18T00:45:02;68236.55;;;6.30;100.00
22930;BME280;11630;42.660;23.292;2023-11-18T00:47:33;68233.86;;;6.30;100.00
22930;BME280;11630;42.660;23.292;2023-11-18T00:50:03;68232.47;;;6.20;100.00
22930;BME280;11630;42.660;23.292;2023-11-18T00:52:34;68215.19;;;6.14;100.00
22930;BME280;11630;42.660;23.292;2023-11-18T00:55:05;68218.41;;;6.12;100.00
22930;BME280;11630;42.660;23.292;2023-11-18T00:57:36;68218.14;;;6.13;100.00
22930;BME280;11630;42.660;23.292;2023-11-18T01:00:16;68209.50;;;6.10;100.00
22930;BME280;11630;42.660;23.292;2023-11-18T01:02:44;68207.86;;;6.07;100.00
22930;BME280;11630;42.660;23.292;2023-11-18T01:05:15;68203.52;;;6.03;100.00
22930;BME280;11630;42.660;23.292;2023-11-18T01:07:46;68205.69;;;6.02;100.00
22930;BME280;11630;42.660;23.292;2023-11-18T01:10:17;68200.55;;;6.01;100.00
22930;BME280;11630;42.660;23.292;2023-11-18T01:12:48;68196.50;;;5.99;100.00
22930;BME280;11630;42.660;23.292;2023-11-18T01:15:19;68204.34;;;6.02;100.00
22930;BME280;11630;42.660;23.292;2023-11-18T01:17:50;68195.11;;;5.94;100.00
22930;BME280;11630;42.660;23.292;2023-11-18T01:20:20;68196.75;;;5.95;100.00
22930;BME280;11630;42.660;23.292;2023-11-18T01:22:51;68192.70;;;5.93;100.00
22930;BME280;11630;42.660;23.292;2023-11-18T01:25:22;68194.02;;;5.90;100.00
22930;BME280;11630;42.660;23.292;2023-11-18T01:27:53;68194.58;;;5.93;100.00
22930;BME280;11630;42.660;23.292;2023-11-18T01:30:25;68176.73;;;5.82;100.00
22930;BME280;11630;42.660;23.292;2023-11-18T01:32:56;68191.05;;;5.89;100.00
22930;BME280;11630;42.660;23.292;2023-11-18T01:35:29;68192.42;;;5.94;100.00
22930;BME280;11630;42.660;23.292;2023-11-18T01:38:00;68191.31;;;5.88;100.00
22930;BME280;11630;42.660;23.292;2023-11-18T01:40:30;68184.55;;;5.83;100.00
22930;BME280;11630;42.660;23.292;2023-11-18T01:43:01;68183.77;;;5.86;100.00
22930;BME280;11630;42.660;23.292;2023-11-18T01:45:32;68178.30;;;5.76;100.00
22930;BME280;11630;42.660;23.292;2023-11-18T01:48:03;68177.26;;;5.80;100.00
22930;BME280;11630;42.660;23.292;2023-11-18T01:50:36;68181.86;;;5.83;100.00
22930;BME280;11630;42.660;23.292;2023-11-18T01:53:06;68169.39;;;5.74;100.00
22930;BME280;11630;42.660;23.292;2023-11-18T01:55:37;68168.30;;;5.70;100.00
22930;BME280;11630;42.660;23.292;2023-11-18T01:58:11;68169.39;;;5.74;100.00
22930;BME280;11630;42.660;23.292;2023-11-18T02:00:42;68161.27;;;5.64;100.00
22930;BME280;11630;42.660;23.292;2023-11-18T02:03:16;68152.06;;;5.58;100.00
22930;BME280;11630;42.660;23.292;2023-11-18T02:05:47;68152.05;;;5.55;100.00
22930;BME280;11630;42.660;23.292;2023-11-18T02:08:18;68136.63;;;5.42;100.00
22930;BME280;11630;42.660;23.292;2023-11-18T02:11:00;68141.23;;;5.45;100.00
22930;BME280;11630;42.660;23.292;2023-11-18T02:13:32;68136.63;;;5.40;100.00
22930;BME280;11630;42.660;23.292;2023-11-18T02:16:04;68141.74;;;5.41;100.00
22930;BME280;11630;42.660;23.292;2023-11-18T02:18:35;68127.44;;;5.34;100.00
22930;BME280;11630;42.660;23.292;2023-11-18T02:21:07;68125.53;;;5.31;100.00
22930;BME280;11630;42.660;23.292;2023-11-18T02:23:40;68131.47;;;5.34;100.00
22930;BME280;11630;42.660;23.292;2023-11-18T02:26:10;68131.47;;;5.34;100.00
22930;BME280;11630;42.660;23.292;2023-11-18T02:28:41;68123.90;;;5.27;100.00
22930;BME280;11630;42.660;23.292;2023-11-18T02:31:15;68105.23;;;5.14;100.00
22930;BME280;11630;42.660;23.292;2023-11-18T02:34:05;68113.61;;;5.20;100.00
22930;BME280;11630;42.660;23.292;2023-11-18T02:36:35;68115.52;;;5.23;100.00
22930;BME280;11630;42.660;23.292;2023-11-18T02:39:08;68114.44;;;5.22;100.00
22930;BME280;11630;42.660;23.292;2023-11-18T02:41:38;68107.94;;;5.16;100.00
22930;BME280;11630;42.660;23.292;2023-11-18T02:44:08;68104.69;;;5.13;100.00
22930;BME280;11630;42.660;23.292;2023-11-18T02:46:41;68112.80;;;5.18;100.00
22930;BME280;11630;42.660;23.292;2023-11-18T02:49:14;68113.91;;;5.24;100.00
22930;BME280;11630;42.660;23.292;2023-11-18T02:51:48;68116.86;;;5.23;100.00
22930;BME280;11630;42.660;23.292;2023-11-18T02:54:19;68103.07;;;5.12;100.00
22930;BME280;11630;42.660;23.292;2023-11-18T02:56:50;68113.89;;;5.19;100.00
22930;BME280;11630;42.660;23.292;2023-11-18T02:59:21;68104.94;;;5.10;100.00
22930;BME280;11630;42.660;23.292;2023-11-18T03:01:53;68097.67;;;5.09;100.00
22930;BME280;11630;42.660;23.292;2023-11-18T03:04:24;68099.28;;;5.08;100.00
22930;BME280;11630;42.660;23.292;2023-11-18T03:06:55;68094.14;;;5.02;100.00
22930;BME280;11630;42.660;23.292;2023-11-18T03:09:25;68089.80;;;4.98;100.00
22930;BME280;11630;42.660;23.292;2023-11-18T03:11:56;68087.64;;;4.96;100.00
22930;BME280;11630;42.660;23.292;2023-11-18T03:14:27;68077.64;;;4.88;100.00
22930;BME280;11630;42.660;23.292;2023-11-18T03:16:58;68078.45;;;4.90;100.00
22930;BME280;11630;42.660;23.292;2023-11-18T03:19:30;68079.24;;;4.87;100.00
22930;BME280;11630;42.660;23.292;2023-11-18T03:22:01;68071.67;;;4.80;100.00
22930;BME280;11630;42.660;23.292;2023-11-18T03:24:31;68060.30;;;4.67;100.00
22930;BME280;11630;42.660;23.292;2023-11-18T03:27:02;68056.27;;;4.67;100.00
22930;BME280;11630;42.660;23.292;2023-11-18T03:29:33;68046.27;;;4.59;100.00
22930;BME280;11630;42.660;23.292;2023-11-18T03:32:04;68035.97;;;4.50;100.00
22930;BME280;11630;42.660;23.292;2023-11-18T03:34:35;68044.09;;;4.57;100.00
22930;BME280;11630;42.660;23.292;2023-11-18T03:37:07;68047.88;;;4.61;100.00
22930;BME280;11630;42.660;23.292;2023-11-18T03:39:38;68033.27;;;4.48;100.00
22930;BME280;11630;42.660;23.292;2023-11-18T03:42:09;68028.64;;;4.40;100.00
22930;BME280;11630;42.660;23.292;2023-11-18T03:44:40;68021.36;;;4.34;100.00
22930;BME280;11630;42.660;23.292;2023-11-18T03:47:10;68021.05;;;4.30;100.00
22930;BME280;11630;42.660;23.292;2023-11-18T03:49:42;68020.27;;;4.31;100.00
22930;BME280;11630;42.660;23.292;2023-11-18T03:52:14;68005.98;;;4.24;100.00
22930;BME280;11630;42.660;23.292;2023-11-18T03:54:46;68005.41;;;4.21;100.00
22930;BME280;11630;42.660;23.292;2023-11-18T03:57:16;67987.03;;;4.06;100.00
22930;BME280;11630;42.660;23.292;2023-11-18T03:59:47;67991.34;;;4.05;100.00
22930;BME280;11630;42.660;23.292;2023-11-18T04:02:16;67979.73;;;3.98;100.00
22930;BME280;11630;42.660;23.292;2023-11-18T04:04:49;67985.38;;;3.97;100.00
22930;BME280;11630;42.660;23.292;2023-11-18T04:07:22;67966.77;;;3.89;100.00
22930;BME280;11630;42.660;23.292;2023-11-18T04:09:52;67969.75;;;3.90;100.00
22930;BME280;11630;42.660;23.292;2023-11-18T04:12:22;67966.75;;;3.84;100.00
22930;BME280;11630;42.660;23.292;2023-11-18T04:14:53;67976.47;;;3.90;100.00
22930;BME280;11630;42.660;23.292;2023-11-18T04:17:24;67966.23;;;3.86;100.00
22930;BME280;11630;42.660;23.292;2023-11-18T04:19:54;67978.63;;;3.95;100.00
22930;BME280;11630;42.660;23.292;2023-11-18T04:22:25;67977.28;;;3.95;100.00
22930;BME280;11630;42.660;23.292;2023-11-18T04:24:57;67964.84;;;3.83;100.00
22930;BME280;11630;42.660;23.292;2023-11-18T04:27:28;67974.81;;;3.86;100.00
22930;BME280;11630;42.660;23.292;2023-11-18T04:29:59;67971.63;;;3.91;100.00
22930;BME280;11630;42.660;23.292;2023-11-18T04:32:30;67979.20;;;3.98;100.00
22930;BME280;11630;42.660;23.292;2023-11-18T04:35:00;67981.64;;;4.01;100.00
22930;BME280;11630;42.660;23.292;2023-11-18T04:37:31;67967.57;;;3.86;100.00
22930;BME280;11630;42.660;23.292;2023-11-18T04:40:08;67980.27;;;3.96;100.00
22930;BME280;11630;42.660;23.292;2023-11-18T04:42:40;67969.72;;;3.88;100.00
22930;BME280;11630;42.660;23.292;2023-11-18T04:45:11;67963.20;;;3.77;100.00
22930;BME280;11630;42.660;23.292;2023-11-18T04:47:40;67960.53;;;3.79;100.00
22930;BME280;11630;42.660;23.292;2023-11-18T04:50:12;67960.00;;;3.79;100.00
22930;BME280;11630;42.660;23.292;2023-11-18T04:52:43;67960.80;;;3.78;100.00
22930;BME280;11630;42.660;23.292;2023-11-18T04:55:15;67954.58;;;3.74;100.00
22930;BME280;11630;42.660;23.292;2023-11-18T04:57:47;67963.78;;;3.82;100.00
22930;BME280;11630;42.660;23.292;2023-11-18T05:00:18;67950.27;;;3.70;100.00
22930;BME280;11630;42.660;23.292;2023-11-18T05:02:49;67944.59;;;3.66;100.00
22930;BME280;11630;42.660;23.292;2023-11-18T05:05:20;67951.61;;;3.70;100.00
22930;BME280;11630;42.660;23.292;2023-11-18T05:07:51;67949.70;;;3.67;100.00
22930;BME280;11630;42.660;23.292;2023-11-18T05:10:21;67958.87;;;3.73;100.00
22930;BME280;11630;42.660;23.292;2023-11-18T05:12:52;67959.16;;;3.75;100.00
22930;BME280;11630;42.660;23.292;2023-11-18T05:15:22;67950.02;;;3.71;100.00
22930;BME280;11630;42.660;23.292;2023-11-18T05:17:56;67954.05;;;3.74;100.00
22930;BME280;11630;42.660;23.292;2023-11-18T05:20:31;67948.10;;;3.68;100.00
22930;BME280;11630;42.660;23.292;2023-11-18T05:23:03;67947.83;;;3.67;100.00
22930;BME280;11630;42.660;23.292;2023-11-18T05:25:32;67951.61;;;3.70;100.00
22930;BME280;11630;42.660;23.292;2023-11-18T05:28:03;67951.87;;;3.69;100.00
22930;BME280;11630;42.660;23.292;2023-11-18T05:30:33;67950.55;;;3.72;100.00
22930;BME280;11630;42.660;23.292;2023-11-18T05:33:05;67961.06;;;3.80;100.00
22930;BME280;11630;42.660;23.292;2023-11-18T05:35:35;67955.13;;;3.72;100.00
22930;BME280;11630;42.660;23.292;2023-11-18T05:38:06;67945.16;;;3.69;100.00
22930;BME280;11630;42.660;23.292;2023-11-18T05:40:37;67954.58;;;3.74;100.00
22930;BME280;11630;42.660;23.292;2023-11-18T05:43:08;67956.75;;;3.76;100.00
22930;BME280;11630;42.660;23.292;2023-11-18T05:45:39;67948.91;;;3.68;100.00
22930;BME280;11630;42.660;23.292;2023-11-18T05:48:10;67952.13;;;3.68;100.00
22930;BME280;11630;42.660;23.292;2023-11-18T05:50:43;67949.44;;;3.68;100.00
22930;BME280;11630;42.660;23.292;2023-11-18T05:53:14;67956.19;;;3.73;100.00
22930;BME280;11630;42.660;23.292;2023-11-18T05:55:46;67950.55;;;3.72;100.00
22930;BME280;11630;42.660;23.292;2023-11-18T05:58:16;67956.19;;;3.73;100.00
22930;BME280;11630;42.660;23.292;2023-11-18T06:00:47;67975.16;;;3.95;100.00
22930;BME280;11630;42.660;23.292;2023-11-18T06:03:18;67987.02;;;4.04;100.00
22930;BME280;11630;42.660;23.292;2023-11-18T06:05:49;67980.53;;;3.98;100.00
22930;BME280;11630;42.660;23.292;2023-11-18T06:08:20;67977.28;;;3.95;100.00
22930;BME280;11630;42.660;23.292;2023-11-18T06:10:51;67967.84;;;3.87;100.00
22930;BME280;11630;42.660;23.292;2023-11-18T06:13:24;67965.67;;;3.85;100.00
22930;BME280;11630;42.660;23.292;2023-11-18T06:15:55;67971.86;;;3.85;100.00
22930;BME280;11630;42.660;23.292;2023-11-18T06:18:26;67974.30;;;3.88;100.00
22930;BME280;11630;42.660;23.292;2023-11-18T06:20:58;67947.27;;;3.66;100.00
22930;BME280;11630;42.660;23.292;2023-11-18T06:23:29;67943.51;;;3.65;100.00
22930;BME280;11630;42.660;23.292;2023-11-18T06:26:00;67941.88;;;3.61;100.00
22930;BME280;11630;42.660;23.292;2023-11-18T06:28:33;67943.49;;;3.63;100.00
22930;BME280;11630;42.660;23.292;2023-11-18T06:31:04;67930.55;;;3.53;100.00
22930;BME280;11630;42.660;23.292;2023-11-18T06:33:36;67938.92;;;3.60;100.00
22930;BME280;11630;42.660;23.292;2023-11-18T06:36:20;67942.70;;;3.63;100.00
22930;BME280;11630;42.660;23.292;2023-11-18T06:38:42;67942.72;;;3.66;100.00
22930;BME280;11630;42.660;23.292;2023-11-18T06:41:13;67959.69;;;3.75;100.00
22930;BME280;11630;42.660;23.292;2023-11-18T06:43:46;67953.78;;;3.72;100.00
22930;BME280;11630;42.660;23.292;2023-11-18T06:46:28;67970.80;;;3.89;100.00
22930;BME280;11630;42.660;23.292;2023-11-18T06:48:58;67967.02;;;3.85;100.00
22930;BME280;11630;42.660;23.292;2023-11-18T06:51:28;67978.92;;;3.96;100.00
22930;BME280;11630;42.660;23.292;2023-11-18T06:54:01;67978.09;;;3.94;100.00
22930;BME280;11630;42.660;23.292;2023-11-18T06:56:42;67990.02;;;4.08;100.00
22930;BME280;11630;42.660;23.292;2023-11-18T06:59:13;67999.19;;;4.14;100.00
22930;BME280;11630;42.660;23.292;2023-11-18T07:01:47;67997.05;;;4.17;100.00
22930;BME280;11630;42.660;23.292;2023-11-18T07:04:18;67991.36;;;4.08;100.00
22930;BME280;11630;42.660;23.292;2023-11-18T07:06:49;68005.16;;;4.22;100.00
22930;BME280;11630;42.660;23.292;2023-11-18T07:09:20;68010.28;;;4.25;100.00
22930;BME280;11630;42.660;23.292;2023-11-18T07:11:51;68008.09;;;4.21;100.00
22930;BME280;11630;42.660;23.292;2023-11-18T07:14:22;67987.83;;;4.03;100.00
22930;BME280;11630;42.660;23.292;2023-11-18T07:16:53;67988.67;;;4.08;100.00
22930;BME280;11630;42.660;23.292;2023-11-18T07:19:24;67980.55;;;4.00;100.00
22930;BME280;11630;42.660;23.292;2023-11-18T07:21:55;67993.80;;;4.11;100.00
22930;BME280;11630;42.660;23.292;2023-11-18T07:24:26;68002.98;;;4.20;100.00
22930;BME280;11630;42.660;23.292;2023-11-18T07:26:56;67978.91;;;3.94;100.00
22930;BME280;11630;42.660;23.292;2023-11-18T07:29:28;67976.77;;;3.97;100.00
22930;BME280;11630;42.660;23.292;2023-11-18T07:31:58;67992.39;;;4.04;100.00
22930;BME280;11630;42.660;23.292;2023-11-18T07:34:29;67984.85;;;4.02;100.00
22930;BME280;11630;42.660;23.292;2023-11-18T07:36:59;67988.94;;;4.07;100.00
22930;BME280;11630;42.660;23.292;2023-11-18T07:39:30;67985.41;;;4.02;100.00
22930;BME280;11630;42.660;23.292;2023-11-18T07:42:02;67980.53;;;3.98;100.00
22930;BME280;11630;42.660;23.292;2023-11-18T07:44:32;67991.09;;;4.09;100.00
22930;BME280;11630;42.660;23.292;2023-11-18T07:47:06;67989.45;;;4.05;100.00
22930;BME280;11630;42.660;23.292;2023-11-18T07:49:37;67976.50;;;3.95;100.00
22930;BME280;11630;42.660;23.292;2023-11-18T07:52:09;67979.71;;;3.96;100.00
22930;BME280;11630;42.660;23.292;2023-11-18T07:54:42;67951.63;;;3.73;100.00
22930;BME280;11630;42.660;23.292;2023-11-18T07:57:12;67952.71;;;3.74;100.00
22930;BME280;11630;42.660;23.292;2023-11-18T07:59:43;67951.87;;;3.69;100.00
22930;BME280;11630;42.660;23.292;2023-11-18T08:02:14;67951.05;;;3.67;100.00
22930;BME280;11630;42.660;23.292;2023-11-18T08:04:44;67957.27;;;3.74;100.00
22930;BME280;11630;42.660;23.292;2023-11-18T08:07:14;67955.13;;;3.72;100.00
22930;BME280;11630;42.660;23.292;2023-11-18T08:09:45;67962.69;;;3.79;100.00
22930;BME280;11630;42.660;23.292;2023-11-18T08:12:17;67961.06;;;3.80;100.00
22930;BME280;11630;42.660;23.292;2023-11-18T08:14:47;67960.52;;;3.77;100.00
22930;BME280;11630;42.660;23.292;2023-11-18T08:17:17;67958.63;;;3.77;100.00
22930;BME280;11630;42.660;23.292;2023-11-18T08:19:48;67965.66;;;3.83;100.00
22930;BME280;11630;42.660;23.292;2023-11-18T08:22:20;67972.13;;;3.86;100.00
22930;BME280;11630;42.660;23.292;2023-11-18T08:24:53;67975.66;;;3.91;100.00
22930;BME280;11630;42.660;23.292;2023-11-18T08:27:24;67973.23;;;3.90;100.00
22930;BME280;11630;42.660;23.292;2023-11-18T08:29:55;67974.05;;;3.92;100.00
22930;BME280;11630;42.660;23.292;2023-11-18T08:32:28;67961.63;;;3.83;100.00
22930;BME280;11630;42.660;23.292;2023-11-18T08:35:01;67967.03;;;3.88;100.00
22930;BME280;11630;42.660;23.292;2023-11-18T08:37:33;67977.28;;;3.95;100.00
22930;BME280;11630;42.660;23.292;2023-11-18T08:40:05;67974.88;;;3.94;100.00
22930;BME280;11630;42.660;23.292;2023-11-18T08:42:37;67973.53;;;3.94;100.00
22930;BME280;11630;42.660;23.292;2023-11-18T08:45:10;67978.63;;;3.95;100.00
22930;BME280;11630;42.660;23.292;2023-11-18T08:47:46;67970.02;;;3.89;100.00
22930;BME280;11630;42.660;23.292;2023-11-18T08:50:16;67972.45;;;3.93;100.00
22930;BME280;11630;42.660;23.292;2023-11-18T08:52:48;67948.93;;;3.70;100.00
22930;BME280;11630;42.660;23.292;2023-11-18T08:55:20;67970.53;;;3.87;100.00
22930;BME280;11630;42.660;23.292;2023-11-18T08:57:52;67952.70;;;3.71;100.00
22930;BME280;11630;42.660;23.292;2023-11-18T09:00:30;67944.84;;;3.65;100.00
22930;BME280;11630;42.660;23.292;2023-11-18T09:03:18;67948.38;;;3.70;100.00
22930;BME280;11630;42.660;23.292;2023-11-18T09:05:49;67952.13;;;3.68;100.00
22930;BME280;11630;42.660;23.292;2023-11-18T09:08:36;67962.15;;;3.81;100.00
22930;BME280;11630;42.660;23.292;2023-11-18T09:11:15;67958.35;;;3.75;100.00
22930;BME280;11630;42.660;23.292;2023-11-18T09:13:42;67952.68;;;3.69;100.00
22930;BME280;11630;42.660;23.292;2023-11-18T09:16:17;67937.85;;;3.61;100.00
22930;BME280;11630;42.660;23.292;2023-11-18T09:18:47;67934.34;;;3.59;100.00
22930;BME280;11630;42.660;23.292;2023-11-18T09:21:18;67946.48;;;3.67;100.00
22930;BME280;11630;42.660;23.292;2023-11-18T09:23:50;67948.34;;;3.65;100.00
22930;BME280;11630;42.660;23.292;2023-11-18T09:26:20;67959.66;;;3.70;100.00
22930;BME280;11630;42.660;23.292;2023-11-18T09:28:51;67957.02;;;3.75;100.00
22930;BME280;11630;42.660;23.292;2023-11-18T09:31:22;67955.41;;;3.76;100.00
22930;BME280;11630;42.660;23.292;2023-11-18T09:33:53;67965.13;;;3.82;100.00
22930;BME280;11630;42.660;23.292;2023-11-18T09:36:23;67961.62;;;3.80;100.00
22930;BME280;11630;42.660;23.292;2023-11-18T09:38:53;67958.66;;;3.79;100.00
22930;BME280;11630;42.660;23.292;2023-11-18T09:41:24;67959.72;;;3.80;100.00
22930;BME280;11630;42.660;23.292;2023-11-18T09:43:55;67966.97;;;3.78;100.00
22930;BME280;11630;42.660;23.292;2023-11-18T09:46:26;67958.13;;;3.81;100.00
22930;BME280;11630;42.660;23.292;2023-11-18T09:49:21;67957.86;;;3.82;100.00
22930;BME280;11630;42.660;23.292;2023-11-18T09:51:49;67950.02;;;3.71;100.00
22930;BME280;11630;42.660;23.292;2023-11-18T09:54:40;67956.46;;;3.72;100.00
22930;BME280;11630;42.660;23.292;2023-11-18T09:59:54;67956.19;;;3.73;100.00
22930;BME280;11630;42.660;23.292;2023-11-18T10:02:24;67956.75;;;3.76;100.00
22930;BME280;11630;42.660;23.292;2023-11-18T10:04:55;67965.41;;;3.84;100.00
22930;BME280;11630;42.660;23.292;2023-11-18T10:07:27;67970.80;;;3.89;100.00
22930;BME280;11630;42.660;23.292;2023-11-18T10:09:58;67994.59;;;4.11;100.00
22930;BME280;11630;42.660;23.292;2023-11-18T10:12:29;67963.80;;;3.85;100.00
22930;BME280;11630;42.660;23.292;2023-11-18T10:15:00;67960.27;;;3.78;100.00
22930;BME280;11630;42.660;23.292;2023-11-18T10:17:31;67966.75;;;3.84;100.00
22930;BME280;11630;42.660;23.292;2023-11-18T10:20:02;67961.38;;;3.84;100.00
22930;BME280;11630;42.660;23.292;2023-11-18T10:22:33;67969.19;;;3.87;100.00
22930;BME280;11630;42.660;23.292;2023-11-18T10:25:05;67967.28;;;3.84;100.00
22930;BME280;11630;42.660;23.292;2023-11-18T10:27:35;67971.09;;;3.90;100.00
22930;BME280;11630;42.660;23.292;2023-11-18T10:30:06;67972.97;;;3.91;100.00
22930;BME280;11630;42.660;23.292;2023-11-18T10:32:37;67969.72;;;3.88;100.00
22930;BME280;11630;42.660;23.292;2023-11-18T10:35:10;67987.53;;;4.02;100.00
22930;BME280;11630;42.660;23.292;2023-11-18T10:37:41;67976.48;;;3.93;100.00
22930;BME280;11630;42.660;23.292;2023-11-18T10:40:13;67982.66;;;3.95;100.00
22930;BME280;11630;42.660;23.292;2023-11-18T10:42:44;67979.97;;;3.95;100.00
22930;BME280;11630;42.660;23.292;2023-11-18T10:45:23;67981.63;;;3.99;100.00
22930;BME280;11630;42.660;23.292;2023-11-18T10:47:49;67982.16;;;3.99;100.00
22930;BME280;11630;42.660;23.292;2023-11-18T10:50:21;67975.94;;;3.95;100.00
22930;BME280;11630;42.660;23.292;2023-11-18T10:52:52;67989.48;;;4.10;100.00
22930;BME280;11630;42.660;23.292;2023-11-18T10:55:23;67997.84;;;4.14;100.00
22930;BME280;11630;42.660;23.292;2023-11-18T10:57:54;67990.55;;;4.08;100.00
22930;BME280;11630;42.660;23.292;2023-11-18T11:00:25;67987.59;;;4.07;100.00
22930;BME280;11630;42.660;23.292;2023-11-18T11:02:59;67979.20;;;3.98;100.00
22930;BME280;11630;42.660;23.292;2023-11-18T11:05:30;67989.16;;;4.01;100.00
22930;BME280;11630;42.660;23.292;2023-11-18T11:08:02;68001.08;;;4.17;100.00
22930;BME280;11630;42.660;23.292;2023-11-18T11:10:35;67991.09;;;4.09;100.00
22930;BME280;11630;42.660;23.292;2023-11-18T11:13:10;67986.23;;;4.04;100.00
22930;BME280;11630;42.660;23.292;2023-11-18T11:15:43;67988.36;;;4.04;100.00
22930;BME280;11630;42.660;23.292;2023-11-18T11:18:18;67980.02;;;4.00;100.00
22930;BME280;11630;42.660;23.292;2023-11-18T11:20:53;67975.39;;;3.92;100.00
22930;BME280;11630;42.660;23.292;2023-11-18T11:23:45;67971.38;;;3.92;100.00
22930;BME280;11630;42.660;23.292;2023-11-18T11:26:28;67972.45;;;3.93;100.00
22930;BME280;11630;42.660;23.292;2023-11-18T11:29:06;67980.25;;;3.94;100.00
22930;BME280;11630;42.660;23.292;2023-11-18T11:31:39;67972.45;;;3.93;100.00
22930;BME280;11630;42.660;23.292;2023-11-18T11:34:20;67981.91;;;4.03;100.00
22930;BME280;11630;42.660;23.292;2023-11-18T11:36:51;67991.06;;;4.06;100.00
22930;BME280;11630;42.660;23.292;2023-11-18T11:39:22;67970.85;;;3.94;100.00
22930;BME280;11630;42.660;23.292;2023-11-18T11:41:56;67987.84;;;4.06;100.00
22930;BME280;11630;42.660;23.292;2023-11-18T11:44:27;67977.28;;;3.95;100.00
22930;BME280;11630;42.660;23.292;2023-11-18T11:46:59;67983.22;;;3.98;100.00
22930;BME280;11630;42.660;23.292;2023-11-18T11:49:35;67981.89;;;4.00;100.00
22930;BME280;11630;42.660;23.292;2023-11-18T11:52:15;67987.58;;;4.04;100.00
22930;BME280;11630;42.660;23.292;2023-11-18T11:54:55;67978.14;;;4.02;100.00
22930;BME280;11630;42.660;23.292;2023-11-18T11:57:15;67985.94;;;4.03;100.00
22930;BME280;11630;42.660;23.292;2023-11-18T12:02:17;68000.27;;;4.15;100.00
22930;BME280;11630;42.660;23.292;2023-11-18T12:04:53;68006.52;;;4.24;100.00
22930;BME280;11630;42.660;23.292;2023-11-18T12:07:25;67999.19;;;4.14;100.00
22930;BME280;11630;42.660;23.292;2023-11-18T12:10:00;67993.50;;;4.10;100.00
22930;BME280;11630;42.660;23.292;2023-11-18T12:12:31;67993.23;;;4.08;100.00
22930;BME280;11630;42.660;23.292;2023-11-18T12:15:02;67979.48;;;4.02;100.00
22930;BME280;11630;42.660;23.292;2023-11-18T12:20:44;68006.48;;;4.19;100.00
22930;BME280;11630;42.660;23.292;2023-11-18T12:23:15;67996.23;;;4.12;100.00
22930;BME280;11630;42.660;23.292;2023-11-18T12:25:49;68008.94;;;4.25;100.00
22930;BME280;11630;42.660;23.292;2023-11-18T12:28:30;68004.33;;;4.20;100.00
22930;BME280;11630;42.660;23.292;2023-11-18T12:31:04;68008.09;;;4.21;100.00
22930;BME280;11630;42.660;23.292;2023-11-18T12:36:37;68011.38;;;4.29;100.00
22930;BME280;11630;42.660;23.292;2023-11-18T12:42:04;68004.89;;;4.23;100.00
22930;BME280;11630;42.660;23.292;2023-11-18T12:44:36;68008.92;;;4.23;100.00
22930;BME280;11630;42.660;23.292;2023-11-18T12:47:11;68008.09;;;4.21;100.00
22930;BME280;11630;42.660;23.292;2023-11-18T12:49:45;68010.81;;;4.26;100.00
22930;BME280;11630;42.660;23.292;2023-11-18T12:52:15;68007.58;;;4.23;100.00
22930;BME280;11630;42.660;23.292;2023-11-18T12:54:47;68020.30;;;4.36;100.00
22930;BME280;11630;42.660;23.292;2023-11-18T12:57:22;68013.25;;;4.29;100.00
22930;BME280;11630;42.660;23.292;2023-11-18T12:59:53;68001.63;;;4.17;100.00
22930;BME280;11630;42.660;23.292;2023-11-18T13:02:23;68000.53;;;4.14;100.00
22930;BME280;11630;42.660;23.292;2023-11-18T13:04:56;68004.59;;;4.19;100.00
22930;BME280;11630;42.660;23.292;2023-11-18T13:07:27;68008.39;;;4.25;100.00
22930;BME280;11630;42.660;23.292;2023-11-18T13:09:58;68001.61;;;4.15;100.00
22930;BME280;11630;42.660;23.292;2023-11-18T13:12:29;68007.58;;;4.23;100.00
22930;BME280;11630;42.660;23.292;2023-11-18T13:14:59;68016.75;;;4.29;100.00
22930;BME280;11630;42.660;23.292;2023-11-18T13:17:30;67994.33;;;4.12;100.00
22930;BME280;11630;42.660;23.292;2023-11-18T13:20:11;67998.11;;;4.15;100.00
22930;BME280;11630;42.660;23.292;2023-11-18T13:22:42;68000.80;;;4.15;100.00
22930;BME280;11630;42.660;23.292;2023-11-18T13:25:13;68005.94;;;4.21;100.00
22930;BME280;11630;42.660;23.292;2023-11-18T13:27:44;68018.09;;;4.29;100.00
22930;BME280;11630;42.660;23.292;2023-11-18T13:30:15;68011.37;;;4.26;100.00